createdAt,value
2022-11-01T00:00:32.440Z,25.52
2022-11-01T00:02:59.360Z,24.75
2022-11-01T00:05:26.403Z,20.35
2022-11-01T00:07:53.743Z,23.75
2022-11-01T00:10:20.847Z,18.47
2022-11-01T00:12:47.843Z,18.60
2022-11-01T00:15:14.798Z,18.60
2022-11-01T00:17:41.766Z,13.48
2022-11-01T00:20:09.263Z,13.82
2022-11-01T00:22:36.242Z,11.80
2022-11-01T00:25:03.348Z,14.10
2022-11-01T00:27:30.282Z,11.23
2022-11-01T00:29:57.323Z,14.93
2022-11-01T00:32:24.763Z,12.18
2022-11-01T00:34:51.760Z,13.60
2022-11-01T00:37:18.943Z,11.73
2022-11-01T00:39:45.880Z,12.95
2022-11-01T00:42:12.881Z,15.48
2022-11-01T00:44:39.770Z,10.02
2022-11-01T00:47:06.757Z,14.27
2022-11-01T00:49:33.962Z,13.27
2022-11-01T00:52:00.947Z,12.50
2022-11-01T00:54:27.909Z,15.13
2022-11-01T00:56:54.985Z,12.95
2022-11-01T00:59:21.904Z,14.10
2022-11-01T01:01:49.122Z,14.48
2022-11-01T01:04:16.112Z,20.00
2022-11-01T01:06:43.229Z,16.92
2022-11-01T01:09:10.981Z,23.17
2022-11-01T01:11:37.890Z,12.03
2022-11-01T01:14:05.093Z,22.88
2022-11-01T01:16:32.196Z,19.50
2022-11-01T01:18:59.268Z,17.88
2022-11-01T01:21:26.205Z,17.85
2022-11-01T01:23:53.099Z,18.27
2022-11-01T01:26:20.184Z,15.60
2022-11-01T01:28:47.206Z,18.15
2022-11-01T01:31:14.285Z,20.27
2022-11-01T01:33:41.280Z,16.52
2022-11-01T01:36:08.565Z,17.97
2022-11-01T01:38:35.596Z,13.73
2022-11-01T01:41:02.825Z,15.80
2022-11-01T01:43:41.697Z,17.85
2022-11-01T01:46:08.612Z,16.63
2022-11-01T01:48:35.666Z,20.60
2022-11-01T01:51:06.733Z,19.00
2022-11-01T01:53:38.641Z,16.70
2022-11-01T01:56:12.368Z,19.23
2022-11-01T01:59:09.800Z,19.58
2022-11-01T02:01:40.412Z,16.57
2022-11-01T02:04:20.263Z,14.18
2022-11-01T02:06:48.337Z,13.13
2022-11-01T02:09:16.485Z,15.02
2022-11-01T02:11:43.364Z,13.80
2022-11-01T02:14:10.482Z,16.30
2022-11-01T02:17:05.575Z,9.85
2022-11-01T02:20:04.825Z,11.23
2022-11-01T02:23:07.803Z,12.25
2022-11-01T02:26:02.220Z,13.05
2022-11-01T02:28:53.916Z,14.97
2022-11-01T02:31:27.028Z,17.10
2022-11-01T02:34:01.623Z,17.70
2022-11-01T02:36:44.625Z,11.05
2022-11-01T02:39:27.507Z,17.25
2022-11-01T02:42:20.372Z,12.27
2022-11-01T02:45:16.447Z,17.60
2022-11-01T02:47:43.478Z,18.00
2022-11-01T02:50:11.943Z,13.52
2022-11-01T02:52:40.802Z,23.25
2022-11-01T02:55:22.997Z,13.47
2022-11-01T02:57:50.107Z,11.30
2022-11-01T03:00:21.027Z,11.23
2022-11-01T03:02:52.297Z,10.48
2022-11-01T03:05:47.162Z,15.15
2022-11-01T03:08:19.185Z,12.67
2022-11-01T03:11:10.588Z,15.48
2022-11-01T03:13:56.125Z,11.93
2022-11-01T03:16:45.000Z,14.90
2022-11-01T03:19:43.963Z,11.02
2022-11-01T03:22:15.560Z,16.27
2022-11-01T03:25:00.787Z,14.13
2022-11-01T03:27:29.922Z,22.13
2022-11-01T03:30:01.765Z,16.85
2022-11-01T03:32:34.960Z,17.13
2022-11-01T03:35:05.158Z,15.80
2022-11-01T03:37:33.960Z,16.45
2022-11-01T03:40:04.725Z,17.42
2022-11-01T03:42:32.927Z,23.25
2022-11-01T03:45:06.865Z,18.42
2022-11-01T03:47:34.936Z,20.00
2022-11-01T03:50:26.108Z,20.75
2022-11-01T03:52:53.481Z,15.45
2022-11-01T03:55:21.708Z,11.20
2022-11-01T03:57:49.632Z,14.00
2022-11-01T04:00:19.703Z,14.73
2022-11-01T04:02:46.867Z,13.30
2022-11-01T04:05:13.913Z,15.38
2022-11-01T04:07:41.011Z,14.27
2022-11-01T04:10:08.468Z,19.98
2022-11-01T04:12:35.735Z,12.00
2022-11-01T04:15:02.799Z,17.23
2022-11-01T04:17:29.709Z,16.35
2022-11-01T04:19:56.783Z,17.30
2022-11-01T04:22:24.714Z,15.15
2022-11-01T04:24:51.765Z,15.77
2022-11-01T04:27:18.811Z,20.58
2022-11-01T04:29:45.998Z,15.50
2022-11-01T04:32:13.027Z,16.83
2022-11-01T04:34:40.046Z,15.48
2022-11-01T04:37:06.923Z,16.63
2022-11-01T04:39:33.960Z,14.20
2022-11-01T04:42:01.030Z,17.35
2022-11-01T04:44:28.057Z,21.20
2022-11-01T04:46:55.082Z,19.67
2022-11-01T04:49:21.926Z,17.53
2022-11-01T04:51:48.827Z,14.27
2022-11-01T04:54:15.748Z,16.05
2022-11-01T04:56:42.706Z,24.33
2022-11-01T04:59:09.626Z,20.52
2022-11-01T05:01:36.599Z,20.63
2022-11-01T05:04:03.936Z,22.02
2022-11-01T05:06:31.049Z,20.23
2022-11-01T05:08:57.949Z,23.77
2022-11-01T05:11:24.881Z,23.88
2022-11-01T05:13:52.369Z,21.40
2022-11-01T05:16:20.775Z,18.52
2022-11-01T05:18:48.736Z,20.80
2022-11-01T05:21:16.105Z,19.58
2022-11-01T05:23:43.039Z,21.45
2022-11-01T05:26:10.720Z,22.00
2022-11-01T05:28:37.708Z,22.23
2022-11-01T05:31:04.697Z,26.85
2022-11-01T05:33:31.846Z,19.50
2022-11-01T05:36:01.490Z,15.73
2022-11-01T05:38:28.454Z,15.80
2022-11-01T05:40:55.344Z,18.55
2022-11-01T05:43:22.321Z,20.85
2022-11-01T05:45:49.563Z,14.75
2022-11-01T05:48:16.567Z,17.08
2022-11-01T05:50:44.482Z,16.57
2022-11-01T05:53:11.458Z,14.55
2022-11-01T05:55:38.834Z,16.13
2022-11-01T05:58:06.460Z,20.90
2022-11-01T06:00:34.617Z,19.02
2022-11-01T06:03:02.346Z,11.77
2022-11-01T06:05:31.081Z,14.45
2022-11-01T06:07:58.599Z,19.00
2022-11-01T06:10:25.660Z,15.73
2022-11-01T06:12:52.707Z,14.77
2022-11-01T06:15:20.183Z,17.80
2022-11-01T06:17:47.489Z,15.52
2022-11-01T06:20:14.843Z,14.77
2022-11-01T06:22:41.880Z,16.00
2022-11-01T06:25:09.606Z,16.27
2022-11-01T06:27:37.068Z,23.07
2022-11-01T06:30:04.609Z,16.48
2022-11-01T06:32:31.724Z,22.40
2022-11-01T06:34:58.847Z,16.13
2022-11-01T06:37:26.094Z,14.18
2022-11-01T06:39:53.113Z,21.40
2022-11-01T06:42:21.988Z,22.13
2022-11-01T06:44:49.173Z,16.95
2022-11-01T06:47:16.615Z,19.88
2022-11-01T06:49:43.542Z,25.48
2022-11-01T06:52:11.647Z,17.63
2022-11-01T06:54:38.777Z,16.63
2022-11-01T06:57:05.961Z,19.42
2022-11-01T06:59:33.062Z,18.13
2022-11-01T07:02:00.152Z,18.55
2022-11-01T07:04:27.258Z,20.20
2022-11-01T07:06:54.387Z,19.55
2022-11-01T07:09:21.508Z,18.95
2022-11-01T07:11:48.902Z,18.48
2022-11-01T07:14:15.983Z,20.52
2022-11-01T07:16:43.068Z,15.90
2022-11-01T07:19:10.143Z,20.13
2022-11-01T07:21:37.656Z,17.52
2022-11-01T07:24:05.095Z,17.67
2022-11-01T07:26:32.183Z,21.25
2022-11-01T07:28:59.229Z,17.07
2022-11-01T07:31:26.427Z,20.02
2022-11-01T07:33:54.258Z,16.15
2022-11-01T07:36:21.482Z,16.90
2022-11-01T07:38:48.543Z,17.77
2022-11-01T07:41:15.601Z,15.77
2022-11-01T07:43:42.502Z,17.58
2022-11-01T07:46:09.490Z,39.15
2022-11-01T07:48:36.440Z,25.50
2022-11-01T07:51:04.085Z,19.15
2022-11-01T07:53:31.166Z,15.80
2022-11-01T07:55:59.655Z,18.13
2022-11-01T07:58:26.762Z,22.27
2022-11-01T08:00:53.988Z,19.80
2022-11-01T08:03:25.068Z,17.35
2022-11-01T08:05:53.497Z,38.83
2022-11-01T08:08:21.097Z,51.95
2022-11-01T08:10:48.747Z,47.20
2022-11-01T08:13:25.334Z,34.75
2022-11-01T08:15:54.228Z,29.02
2022-11-01T08:18:23.377Z,20.30
2022-11-01T08:20:51.814Z,22.00
2022-11-01T08:23:19.640Z,21.88
2022-11-01T08:25:47.156Z,22.02
2022-11-01T08:28:17.603Z,21.75
2022-11-01T08:30:47.028Z,20.17
2022-11-01T08:33:14.095Z,24.40
2022-11-01T08:35:45.826Z,18.92
2022-11-01T08:38:16.082Z,17.40
2022-11-01T08:40:43.350Z,20.42
2022-11-01T08:43:10.348Z,19.03
2022-11-01T08:45:37.542Z,16.70
2022-11-01T08:48:05.624Z,24.40
2022-11-01T08:50:38.748Z,19.45
2022-11-01T08:53:13.211Z,22.25
2022-11-01T08:55:40.842Z,15.70
2022-11-01T08:58:08.819Z,16.38
2022-11-01T09:00:38.130Z,15.52
2022-11-01T09:03:05.723Z,11.18
2022-11-01T09:05:32.897Z,18.10
2022-11-01T09:08:02.535Z,13.57
2022-11-01T09:10:30.733Z,17.40
2022-11-01T09:13:00.745Z,11.48
2022-11-01T09:15:28.762Z,13.57
2022-11-01T09:17:55.881Z,14.38
2022-11-01T09:20:22.888Z,13.60
2022-11-01T09:22:53.842Z,14.85
2022-11-01T09:25:21.180Z,16.25
2022-11-01T09:27:51.784Z,30.08
2022-11-01T09:30:19.336Z,22.27
2022-11-01T09:32:47.221Z,17.33
2022-11-01T09:35:15.817Z,13.15
2022-11-01T09:37:42.921Z,12.93
2022-11-01T09:40:11.730Z,12.50
2022-11-01T09:42:41.739Z,19.48
2022-11-01T09:45:16.105Z,17.80
2022-11-01T09:47:44.506Z,13.10
2022-11-01T09:50:35.567Z,14.32
2022-11-01T09:53:15.144Z,15.25
2022-11-01T09:56:12.828Z,20.63
2022-11-01T09:58:48.669Z,10.77
2022-11-01T10:01:49.752Z,13.65
2022-11-01T10:04:55.624Z,14.95
2022-11-01T10:07:50.189Z,12.27
2022-11-01T10:10:36.770Z,12.25
2022-11-01T10:13:22.481Z,15.90
2022-11-01T10:16:01.422Z,13.73
2022-11-01T10:18:47.649Z,14.90
2022-11-01T10:21:18.399Z,15.73
2022-11-01T10:23:46.266Z,9.65
2022-11-01T10:26:18.597Z,15.30
2022-11-01T10:28:59.662Z,14.95
2022-11-01T10:31:29.120Z,11.15
2022-11-01T10:34:02.278Z,13.60
2022-11-01T10:36:40.692Z,10.80
2022-11-01T10:39:53.884Z,12.43
2022-11-01T10:42:23.063Z,10.07
2022-11-01T10:44:54.043Z,12.65
2022-11-01T10:47:24.162Z,11.13
2022-11-01T10:50:10.258Z,10.80
2022-11-01T10:53:09.320Z,11.33
2022-11-01T10:56:05.813Z,10.38
2022-11-01T10:58:47.885Z,10.90
2022-11-01T11:01:22.168Z,11.20
2022-11-01T11:03:50.986Z,8.65
2022-11-01T11:08:50.461Z,15.25
2022-11-01T11:11:20.839Z,10.45
2022-11-01T11:13:51.748Z,7.85
2022-11-01T11:16:54.052Z,11.70
2022-11-01T11:19:35.923Z,11.33
2022-11-01T11:22:08.068Z,11.02
2022-11-01T11:24:38.359Z,9.70
2022-11-01T11:27:18.722Z,11.18
2022-11-01T11:29:54.922Z,12.98
2022-11-01T11:32:28.884Z,10.20
2022-11-01T11:34:59.944Z,10.52
2022-11-01T11:37:30.204Z,12.52
2022-11-01T11:40:20.523Z,9.23
2022-11-01T11:42:49.765Z,13.52
2022-11-01T11:45:21.136Z,12.73
2022-11-01T11:47:48.260Z,10.05
2022-11-01T11:50:25.925Z,11.48
2022-11-01T11:53:19.882Z,10.20
2022-11-01T11:55:55.688Z,9.48
2022-11-01T11:58:34.416Z,13.17
2022-11-01T12:01:10.506Z,7.82
2022-11-01T12:04:07.057Z,8.13
2022-11-01T12:06:41.520Z,10.63
2022-11-01T12:09:42.935Z,12.00
2022-11-01T12:12:31.528Z,8.80
2022-11-01T12:15:00.153Z,12.10
2022-11-01T12:17:31.042Z,9.75
2022-11-01T12:20:15.536Z,13.45
2022-11-01T12:22:55.730Z,11.15
2022-11-01T12:25:24.838Z,8.27
2022-11-01T12:27:56.308Z,9.93
2022-11-01T12:30:25.349Z,11.20
2022-11-01T12:33:07.298Z,12.05
2022-11-01T12:35:44.845Z,9.43
2022-11-01T12:38:49.127Z,10.70
2022-11-01T12:41:45.290Z,10.95
2022-11-01T12:44:33.128Z,11.18
2022-11-01T12:47:06.029Z,9.60
2022-11-01T12:49:37.098Z,10.77
2022-11-01T12:54:47.905Z,11.90
2022-11-01T13:02:53.770Z,15.13
2022-11-01T13:06:01.672Z,11.60
2022-11-01T13:08:47.051Z,8.88
2022-11-01T13:11:46.484Z,9.27
2022-11-01T13:14:36.880Z,11.43
2022-11-01T13:17:24.205Z,10.52
2022-11-01T13:20:09.772Z,10.10
2022-11-01T13:22:53.084Z,9.73
2022-11-01T13:26:00.847Z,10.70
2022-11-01T13:28:57.302Z,8.07
2022-11-01T13:31:42.902Z,11.15
2022-11-01T13:34:28.485Z,13.80
2022-11-01T13:37:01.947Z,12.82
2022-11-01T13:39:47.357Z,15.43
2022-11-01T13:42:17.258Z,12.07
2022-11-01T13:45:01.007Z,16.48
2022-11-01T13:47:41.038Z,18.10
2022-11-01T13:50:26.018Z,14.30
2022-11-01T13:53:26.560Z,24.20
2022-11-01T13:55:59.212Z,27.15
2022-11-01T13:58:26.248Z,27.30
2022-11-01T14:00:54.928Z,28.17
2022-11-01T14:03:27.900Z,27.42
2022-11-01T14:06:09.820Z,27.20
2022-11-01T14:08:41.365Z,21.38
2022-11-01T14:11:12.844Z,17.08
2022-11-01T14:13:44.282Z,17.80
2022-11-01T14:16:17.099Z,17.42
2022-11-01T14:19:02.255Z,22.75
2022-11-01T14:21:41.939Z,16.73
2022-11-01T14:24:21.664Z,22.00
2022-11-01T14:27:39.966Z,30.33
2022-11-01T14:30:36.865Z,37.35
2022-11-01T14:33:04.601Z,22.10
2022-11-01T14:35:36.202Z,33.00
2022-11-01T14:38:08.010Z,66.50
2022-11-01T14:40:47.732Z,109.30
2022-11-01T14:43:19.836Z,33.63
2022-11-01T14:45:52.929Z,81.03
2022-11-01T14:48:28.468Z,23.98
2022-11-01T14:51:02.572Z,24.92
2022-11-01T14:53:33.729Z,58.40
2022-11-01T14:56:19.022Z,60.08
2022-11-01T14:58:46.811Z,66.55
2022-11-01T15:01:17.153Z,31.05
2022-11-01T15:03:58.243Z,48.15
2022-11-01T15:06:28.925Z,33.63
2022-11-01T15:09:00.944Z,67.18
2022-11-01T15:11:30.908Z,82.20
2022-11-01T15:14:01.381Z,57.00
2022-11-01T15:16:28.928Z,54.72
2022-11-01T15:19:06.440Z,145.37
2022-11-01T15:21:34.139Z,111.03
2022-11-01T15:24:01.807Z,70.45
2022-11-01T15:26:32.719Z,26.20
2022-11-01T15:29:02.973Z,27.90
2022-11-01T15:31:31.069Z,24.60
2022-11-01T15:34:00.928Z,20.50
2022-11-01T15:36:33.561Z,20.65
2022-11-01T15:39:03.267Z,20.23
2022-11-01T15:41:36.491Z,19.45
2022-11-01T15:44:05.707Z,19.83
2022-11-01T15:46:43.488Z,22.15
2022-11-01T15:49:17.729Z,22.90
2022-11-01T15:51:58.867Z,20.67
2022-11-01T15:54:47.666Z,14.90
2022-11-01T15:57:23.340Z,15.53
2022-11-01T16:00:03.944Z,15.38
2022-11-01T16:02:41.090Z,14.38
2022-11-01T16:05:11.657Z,18.45
2022-11-01T16:07:39.960Z,12.13
2022-11-01T16:10:08.433Z,13.50
2022-11-01T16:12:38.989Z,16.10
2022-11-01T16:15:19.226Z,13.07
2022-11-01T16:17:46.401Z,11.20
2022-11-01T16:20:27.163Z,20.02
2022-11-01T16:22:54.823Z,18.47
2022-11-01T16:25:33.460Z,28.45
2022-11-01T16:28:10.706Z,18.98
2022-11-01T16:30:46.917Z,25.98
2022-11-01T16:33:35.095Z,43.58
2022-11-01T16:36:18.263Z,34.63
2022-11-01T16:38:46.731Z,29.00
2022-11-01T16:41:22.229Z,29.38
2022-11-01T16:43:53.922Z,22.85
2022-11-01T16:46:22.918Z,22.77
2022-11-01T16:48:52.582Z,18.97
2022-11-01T16:51:20.731Z,26.08
2022-11-01T16:53:48.002Z,24.67
2022-11-01T16:56:35.686Z,18.23
2022-11-01T16:59:24.731Z,24.05
2022-11-01T17:01:52.976Z,20.87
2022-11-01T17:04:20.012Z,24.80
2022-11-01T17:06:47.025Z,21.05
2022-11-01T17:09:16.867Z,23.60
2022-11-01T17:11:50.562Z,24.02
2022-11-01T17:14:19.476Z,19.13
2022-11-01T17:16:47.678Z,21.75
2022-11-01T17:19:27.141Z,21.80
2022-11-01T17:21:55.140Z,18.10
2022-11-01T17:24:24.648Z,16.08
2022-11-01T17:26:54.047Z,16.00
2022-11-01T17:29:21.196Z,16.45
2022-11-01T17:31:48.239Z,12.95
2022-11-01T17:34:15.205Z,15.95
2022-11-01T17:36:47.329Z,14.95
2022-11-01T17:39:14.819Z,11.43
2022-11-01T17:41:41.785Z,16.70
2022-11-01T17:44:12.085Z,24.85
2022-11-01T17:46:39.364Z,16.63
2022-11-01T17:49:06.453Z,16.98
2022-11-01T17:51:33.737Z,18.40
2022-11-01T17:54:12.434Z,18.85
2022-11-01T17:56:39.425Z,21.63
2022-11-01T17:59:06.723Z,17.58
2022-11-01T18:01:34.027Z,22.15
2022-11-01T18:04:01.496Z,19.57
2022-11-01T18:06:35.442Z,20.02
2022-11-01T18:09:02.490Z,22.23
2022-11-01T18:12:09.588Z,20.23
2022-11-01T18:14:39.312Z,18.70
2022-11-01T18:17:24.099Z,18.00
2022-11-01T18:20:12.501Z,18.70
2022-11-01T18:23:00.886Z,23.25
2022-11-01T18:25:46.784Z,21.10
2022-11-01T18:28:17.467Z,14.93
2022-11-01T18:31:01.363Z,13.83
2022-11-01T18:34:10.465Z,16.10
2022-11-01T18:36:53.483Z,20.83
2022-11-01T18:39:42.479Z,11.85
2022-11-01T18:42:10.746Z,11.20
2022-11-01T18:44:38.347Z,14.50
2022-11-01T18:47:13.097Z,12.95
2022-11-01T18:49:40.369Z,12.13
2022-11-01T18:52:16.481Z,14.40
2022-11-01T18:54:55.175Z,14.75
2022-11-01T18:57:24.224Z,14.53
2022-11-01T18:59:53.514Z,9.63
2022-11-01T19:02:27.407Z,16.38
2022-11-01T19:05:15.679Z,21.15
2022-11-01T19:08:10.063Z,18.58
2022-11-01T19:10:36.642Z,17.83
2022-11-01T19:13:12.925Z,18.92
2022-11-01T19:15:54.402Z,21.23
2022-11-01T19:18:23.648Z,16.08
2022-11-01T19:20:54.707Z,19.95
2022-11-01T19:23:42.820Z,26.87
2022-11-01T19:26:24.764Z,27.00
2022-11-01T19:28:52.783Z,24.85
2022-11-01T19:31:37.987Z,27.08
2022-11-01T19:34:20.655Z,24.02
2022-11-01T19:36:51.839Z,29.83
2022-11-01T19:39:33.047Z,27.80
2022-11-01T19:42:15.481Z,31.17
2022-11-01T19:44:42.860Z,30.42
2022-11-01T19:47:34.863Z,29.33
2022-11-01T19:50:02.687Z,31.73
2022-11-01T19:52:40.107Z,36.63
2022-11-01T19:55:37.089Z,34.35
2022-11-01T19:58:39.363Z,26.42
2022-11-01T20:04:29.532Z,16.77
2022-11-01T20:06:58.001Z,30.40
2022-11-01T20:09:33.105Z,28.80
2022-11-01T20:14:48.043Z,17.02
2022-11-01T20:17:25.509Z,21.23
2022-11-01T20:19:59.858Z,18.98
2022-11-01T20:22:37.984Z,15.50
2022-11-01T20:25:05.744Z,13.50
2022-11-01T20:27:32.880Z,11.95
2022-11-01T20:30:13.216Z,15.13
2022-11-01T20:32:43.369Z,12.30
2022-11-01T20:35:11.065Z,14.90
2022-11-01T20:37:38.117Z,13.40
2022-11-01T20:40:06.324Z,12.55
2022-11-01T20:42:33.376Z,15.90
2022-11-01T20:45:00.336Z,17.00
2022-11-01T20:50:15.121Z,16.35
2022-11-01T20:52:43.070Z,18.50
2022-11-01T20:55:11.642Z,20.83
2022-11-01T20:57:39.199Z,20.40
2022-11-01T21:00:07.964Z,18.58
2022-11-01T21:02:35.001Z,22.42
2022-11-01T21:05:14.493Z,23.67
2022-11-01T21:07:46.782Z,21.10
2022-11-01T21:10:33.004Z,15.63
2022-11-01T21:13:01.944Z,21.20
2022-11-01T21:15:39.547Z,18.98
2022-11-01T21:18:12.105Z,22.30
2022-11-01T21:20:50.749Z,25.67
2022-11-01T21:23:26.643Z,27.27
2022-11-01T21:26:01.289Z,23.40
2022-11-01T21:28:38.713Z,24.70
2022-11-01T21:31:14.886Z,27.33
2022-11-01T21:33:54.305Z,19.97
2022-11-01T21:36:21.227Z,23.65
2022-11-01T21:39:10.135Z,25.00
2022-11-01T21:41:50.326Z,20.35
2022-11-01T21:44:56.228Z,20.00
2022-11-01T21:47:24.242Z,20.17
2022-11-01T21:49:52.066Z,26.48
2022-11-01T21:52:19.809Z,19.17
2022-11-01T21:54:47.787Z,17.70
2022-11-01T21:57:15.849Z,21.30
2022-11-01T21:59:43.662Z,24.20
2022-11-01T22:02:12.853Z,24.23
2022-11-01T22:04:40.014Z,16.88
2022-11-01T22:07:08.463Z,17.88
2022-11-01T22:09:35.849Z,17.38
2022-11-01T22:12:03.413Z,14.33
2022-11-01T22:14:30.703Z,15.40
2022-11-01T22:16:57.654Z,15.65
2022-11-01T22:19:24.560Z,11.55
2022-11-01T22:21:51.519Z,13.10
2022-11-01T22:24:18.698Z,12.33
2022-11-01T22:26:45.608Z,12.15
2022-11-01T22:29:12.527Z,18.67
2022-11-01T22:31:39.422Z,12.20
2022-11-01T22:34:06.384Z,17.23
2022-11-01T22:36:36.095Z,16.13
2022-11-01T22:39:16.727Z,17.30
2022-11-01T22:41:43.895Z,15.23
2022-11-01T22:44:16.786Z,24.00
2022-11-01T22:46:46.739Z,18.10
2022-11-01T22:49:19.344Z,21.03
2022-11-01T22:52:32.782Z,22.05
2022-11-01T22:55:11.540Z,33.47
2022-11-01T22:57:47.182Z,22.25
2022-11-01T23:00:30.586Z,19.58
2022-11-01T23:03:11.208Z,16.00
2022-11-01T23:05:38.408Z,16.08
2022-11-01T23:08:21.823Z,18.58
2022-11-01T23:10:51.099Z,14.93
2022-11-01T23:13:31.252Z,15.38
2022-11-01T23:16:03.865Z,18.13
2022-11-01T23:18:33.412Z,17.17
2022-11-01T23:21:05.267Z,17.02
2022-11-01T23:23:35.459Z,18.27
2022-11-01T23:26:03.131Z,21.15
2022-11-01T23:28:31.013Z,14.97
2022-11-01T23:30:57.982Z,17.17
2022-11-01T23:33:32.783Z,14.43
2022-11-01T23:36:01.000Z,18.75
2022-11-01T23:38:47.650Z,12.90
2022-11-01T23:41:22.427Z,13.60
2022-11-01T23:43:50.698Z,15.95
2022-11-01T23:46:18.900Z,15.30
2022-11-01T23:48:46.609Z,15.65
2022-11-01T23:51:19.341Z,15.73
2022-11-01T23:53:48.375Z,21.07
2022-11-01T23:56:19.040Z,18.95
2022-11-01T23:58:52.740Z,15.75
